CheckWX is a tool to help pilots better visualize weather data.  It is not intended as a substitute for an official pre-flight weather briefing.

16:10:09 UTC

KHPN METAR
Westchester County Airport
White Plains, New York, USA
Current

14 mins ago

KHPN 261556Z 30013KT 10SM FEW040 26/18 A2993 RMK AO2 SLP131 T02560178
Observed
May-26 @ 15:56 UTC
Wind
  • 300° at 13 KTS
Visibility
10 SM
Flight Rules
VFR
Cloud Levels
  • Few at 4,000' AGL
Temperature
26°C / 79°F
Dewpoint
18°C / 64°F
Humidity
61%
Altimeter
29.93" Hg
Pressure
1013.52 hPa
Previous

1 hour ago

KHPN 261456Z 31011KT 10SM FEW020 24/18 A2994 RMK AO2 SLP135 T02440183 53001
Observed
May-26 @ 14:56 UTC
Wind
  • 310° at 11 KTS
Visibility
10 SM
Flight Rules
VFR
Cloud Levels
  • Few at 2,000' AGL
Temperature
24°C / 75°F
Dewpoint
18°C / 64°F
Humidity
69%
Altimeter
29.94" Hg
Pressure
1013.92 hPa
Previous

2 hours ago

KHPN 261356Z 31008KT 10SM FEW020 23/18 A2993 RMK AO2 SLP133 T02280178
Observed
May-26 @ 13:56 UTC
Wind
  • 310° at 8 KTS
Visibility
10 SM
Flight Rules
VFR
Cloud Levels
  • Few at 2,000' AGL
Temperature
23°C / 73°F
Dewpoint
18°C / 64°F
Humidity
74%
Altimeter
29.93" Hg
Pressure
1013.52 hPa